sensor_id;sensor_type;location;lat;lon;timestamp;temperature;humidity
30381;DHT22;17169;50.966;11.038;2023-07-29T00:02:22;20.30;99.90
30381;DHT22;17169;50.966;11.038;2023-07-29T00:05:26;20.30;99.90
30381;DHT22;17169;50.966;11.038;2023-07-29T00:08:28;20.30;99.90
30381;DHT22;17169;50.966;11.038;2023-07-29T00:11:30;20.30;99.90
30381;DHT22;17169;50.966;11.038;2023-07-29T00:14:34;20.20;99.90
30381;DHT22;17169;50.966;11.038;2023-07-29T00:17:37;20.20;99.90
30381;DHT22;17169;50.966;11.038;2023-07-29T00:20:40;20.20;99.90
30381;DHT22;17169;50.966;11.038;2023-07-29T00:23:43;20.10;99.90
30381;DHT22;17169;50.966;11.038;2023-07-29T00:26:45;20.00;99.90
30381;DHT22;17169;50.966;11.038;2023-07-29T00:29:48;20.00;99.90
30381;DHT22;17169;50.966;11.038;2023-07-29T00:32:50;20.00;99.90
30381;DHT22;17169;50.966;11.038;2023-07-29T00:35:54;19.90;99.90
30381;DHT22;17169;50.966;11.038;2023-07-29T00:38:56;19.90;99.90
30381;DHT22;17169;50.966;11.038;2023-07-29T00:41:59;19.90;99.90
30381;DHT22;17169;50.966;11.038;2023-07-29T00:45:01;19.90;99.90
30381;DHT22;17169;50.966;11.038;2023-07-29T00:48:04;19.80;99.90
30381;DHT22;17169;50.966;11.038;2023-07-29T00:51:08;19.80;99.90
30381;DHT22;17169;50.966;11.038;2023-07-29T00:54:10;19.80;99.90
30381;DHT22;17169;50.966;11.038;2023-07-29T00:57:14;19.80;99.90
30381;DHT22;17169;50.966;11.038;2023-07-29T01:00:17;19.80;99.90
30381;DHT22;17169;50.966;11.038;2023-07-29T01:03:19;19.70;99.90
30381;DHT22;17169;50.966;11.038;2023-07-29T01:06:33;19.70;99.90
30381;DHT22;17169;50.966;11.038;2023-07-29T01:09:40;19.70;99.90
30381;DHT22;17169;50.966;11.038;2023-07-29T01:12:49;19.70;99.90
30381;DHT22;17169;50.966;11.038;2023-07-29T01:15:55;19.70;99.90
30381;DHT22;17169;50.966;11.038;2023-07-29T01:19:00;19.70;99.90
30381;DHT22;17169;50.966;11.038;2023-07-29T01:22:06;19.60;99.90
30381;DHT22;17169;50.966;11.038;2023-07-29T01:25:11;19.70;99.90
30381;DHT22;17169;50.966;11.038;2023-07-29T01:28:13;19.60;99.90
30381;DHT22;17169;50.966;11.038;2023-07-29T01:31:23;19.60;99.90
30381;DHT22;17169;50.966;11.038;2023-07-29T01:34:32;19.60;99.90
30381;DHT22;17169;50.966;11.038;2023-07-29T01:37:37;19.60;99.90
30381;DHT22;17169;50.966;11.038;2023-07-29T01:40:42;19.60;99.90
30381;DHT22;17169;50.966;11.038;2023-07-29T01:43:46;19.60;99.90
30381;DHT22;17169;50.966;11.038;2023-07-29T01:46:49;19.60;99.90
30381;DHT22;17169;50.966;11.038;2023-07-29T01:49:52;19.60;99.90
30381;DHT22;17169;50.966;11.038;2023-07-29T01:52:54;19.50;99.90
30381;DHT22;17169;50.966;11.038;2023-07-29T01:55:58;19.50;99.90
30381;DHT22;17169;50.966;11.038;2023-07-29T01:59:00;19.50;99.90
30381;DHT22;17169;50.966;11.038;2023-07-29T02:02:03;19.40;99.90
30381;DHT22;17169;50.966;11.038;2023-07-29T02:05:06;19.40;99.90
30381;DHT22;17169;50.966;11.038;2023-07-29T02:08:08;19.40;99.90
30381;DHT22;17169;50.966;11.038;2023-07-29T02:11:12;19.40;99.90
30381;DHT22;17169;50.966;11.038;2023-07-29T02:14:14;19.40;99.90
30381;DHT22;17169;50.966;11.038;2023-07-29T02:17:17;19.30;99.90
30381;DHT22;17169;50.966;11.038;2023-07-29T02:20:19;19.30;99.90
30381;DHT22;17169;50.966;11.038;2023-07-29T02:23:21;19.20;99.90
30381;DHT22;17169;50.966;11.038;2023-07-29T02:26:25;19.20;99.90
30381;DHT22;17169;50.966;11.038;2023-07-29T02:29:28;19.20;99.90
30381;DHT22;17169;50.966;11.038;2023-07-29T02:32:31;19.20;99.90
30381;DHT22;17169;50.966;11.038;2023-07-29T02:35:33;19.20;99.90
30381;DHT22;17169;50.966;11.038;2023-07-29T02:38:36;19.30;99.90
30381;DHT22;17169;50.966;11.038;2023-07-29T02:41:40;19.30;99.90
30381;DHT22;17169;50.966;11.038;2023-07-29T02:44:42;19.30;99.90
30381;DHT22;17169;50.966;11.038;2023-07-29T02:47:44;19.30;99.90
30381;DHT22;17169;50.966;11.038;2023-07-29T02:50:47;19.30;99.90
30381;DHT22;17169;50.966;11.038;2023-07-29T02:53:50;19.30;99.90
30381;DHT22;17169;50.966;11.038;2023-07-29T02:56:53;19.40;99.90
30381;DHT22;17169;50.966;11.038;2023-07-29T02:59:56;19.40;99.90
30381;DHT22;17169;50.966;11.038;2023-07-29T03:02:58;19.40;99.90
30381;DHT22;17169;50.966;11.038;2023-07-29T03:06:02;19.40;99.90
30381;DHT22;17169;50.966;11.038;2023-07-29T03:09:05;19.30;99.90
30381;DHT22;17169;50.966;11.038;2023-07-29T03:12:08;19.30;99.90
30381;DHT22;17169;50.966;11.038;2023-07-29T03:15:11;19.30;99.90
30381;DHT22;17169;50.966;11.038;2023-07-29T03:18:14;19.30;99.90
30381;DHT22;17169;50.966;11.038;2023-07-29T03:21:16;19.30;99.90
30381;DHT22;17169;50.966;11.038;2023-07-29T03:24:19;19.20;99.90
30381;DHT22;17169;50.966;11.038;2023-07-29T03:27:22;19.20;99.90
30381;DHT22;17169;50.966;11.038;2023-07-29T03:30:25;19.30;99.90
30381;DHT22;17169;50.966;11.038;2023-07-29T03:33:27;19.20;99.90
30381;DHT22;17169;50.966;11.038;2023-07-29T03:36:29;19.20;99.90
30381;DHT22;17169;50.966;11.038;2023-07-29T03:39:32;19.30;99.90
30381;DHT22;17169;50.966;11.038;2023-07-29T03:42:36;19.20;99.90
30381;DHT22;17169;50.966;11.038;2023-07-29T03:45:39;19.20;99.90
30381;DHT22;17169;50.966;11.038;2023-07-29T03:48:42;19.10;99.90
30381;DHT22;17169;50.966;11.038;2023-07-29T03:51:44;19.00;99.90
30381;DHT22;17169;50.966;11.038;2023-07-29T03:54:47;19.00;99.90
30381;DHT22;17169;50.966;11.038;2023-07-29T03:57:50;18.90;99.90
30381;DHT22;17169;50.966;11.038;2023-07-29T04:00:53;18.80;99.90
30381;DHT22;17169;50.966;11.038;2023-07-29T04:03:55;18.80;99.90
30381;DHT22;17169;50.966;11.038;2023-07-29T04:06:58;18.80;99.90
30381;DHT22;17169;50.966;11.038;2023-07-29T04:10:00;18.80;99.90
30381;DHT22;17169;50.966;11.038;2023-07-29T04:13:04;18.80;99.90
30381;DHT22;17169;50.966;11.038;2023-07-29T04:16:07;18.80;99.90
30381;DHT22;17169;50.966;11.038;2023-07-29T04:19:09;18.90;99.90
30381;DHT22;17169;50.966;11.038;2023-07-29T04:22:12;18.90;99.90
30381;DHT22;17169;50.966;11.038;2023-07-29T04:25:14;18.90;99.90
30381;DHT22;17169;50.966;11.038;2023-07-29T04:28:18;19.00;99.90
30381;DHT22;17169;50.966;11.038;2023-07-29T04:31:21;19.10;99.90
30381;DHT22;17169;50.966;11.038;2023-07-29T04:34:24;19.20;99.90
30381;DHT22;17169;50.966;11.038;2023-07-29T04:37:26;19.30;99.90
30381;DHT22;17169;50.966;11.038;2023-07-29T04:40:29;19.40;99.90
30381;DHT22;17169;50.966;11.038;2023-07-29T04:43:33;19.50;99.90
30381;DHT22;17169;50.966;11.038;2023-07-29T04:46:36;19.60;99.90
30381;DHT22;17169;50.966;11.038;2023-07-29T04:49:39;19.70;99.90
30381;DHT22;17169;50.966;11.038;2023-07-29T04:52:42;19.80;99.90
30381;DHT22;17169;50.966;11.038;2023-07-29T04:55:45;20.00;99.90
30381;DHT22;17169;50.966;11.038;2023-07-29T04:58:49;20.00;99.90
30381;DHT22;17169;50.966;11.038;2023-07-29T05:01:51;20.10;99.90
30381;DHT22;17169;50.966;11.038;2023-07-29T05:04:54;20.00;99.90
30381;DHT22;17169;50.966;11.038;2023-07-29T05:07:56;20.10;99.90
30381;DHT22;17169;50.966;11.038;2023-07-29T05:10:59;20.20;99.90
30381;DHT22;17169;50.966;11.038;2023-07-29T05:14:02;20.20;99.90
30381;DHT22;17169;50.966;11.038;2023-07-29T05:17:07;20.20;99.90
30381;DHT22;17169;50.966;11.038;2023-07-29T05:20:09;20.20;99.90
30381;DHT22;17169;50.966;11.038;2023-07-29T05:23:12;20.20;99.90
30381;DHT22;17169;50.966;11.038;2023-07-29T05:26:15;20.30;99.90
30381;DHT22;17169;50.966;11.038;2023-07-29T05:29:18;20.30;99.90
30381;DHT22;17169;50.966;11.038;2023-07-29T05:32:21;20.40;99.90
30381;DHT22;17169;50.966;11.038;2023-07-29T05:35:23;20.50;99.90
30381;DHT22;17169;50.966;11.038;2023-07-29T05:38:26;20.60;99.90
30381;DHT22;17169;50.966;11.038;2023-07-29T05:41:28;20.60;99.90
30381;DHT22;17169;50.966;11.038;2023-07-29T05:44:32;20.70;99.90
30381;DHT22;17169;50.966;11.038;2023-07-29T05:47:35;20.80;99.90
30381;DHT22;17169;50.966;11.038;2023-07-29T05:50:37;20.90;99.90
30381;DHT22;17169;50.966;11.038;2023-07-29T05:53:40;21.00;99.90
30381;DHT22;17169;50.966;11.038;2023-07-29T05:56:42;21.10;99.90
30381;DHT22;17169;50.966;11.038;2023-07-29T05:59:46;21.20;99.90
30381;DHT22;17169;50.966;11.038;2023-07-29T06:02:48;21.30;99.90
30381;DHT22;17169;50.966;11.038;2023-07-29T06:05:51;21.50;99.90
30381;DHT22;17169;50.966;11.038;2023-07-29T06:08:53;21.60;99.90
30381;DHT22;17169;50.966;11.038;2023-07-29T06:11:56;21.60;99.90
30381;DHT22;17169;50.966;11.038;2023-07-29T06:15:00;21.70;99.90
30381;DHT22;17169;50.966;11.038;2023-07-29T06:18:02;21.70;99.90
30381;DHT22;17169;50.966;11.038;2023-07-29T06:21:05;21.70;99.90
30381;DHT22;17169;50.966;11.038;2023-07-29T06:24:09;21.60;99.90
30381;DHT22;17169;50.966;11.038;2023-07-29T06:27:11;21.60;99.90
30381;DHT22;17169;50.966;11.038;2023-07-29T06:30:15;21.60;99.90
30381;DHT22;17169;50.966;11.038;2023-07-29T06:33:17;21.70;99.90
30381;DHT22;17169;50.966;11.038;2023-07-29T06:36:20;21.70;99.90
30381;DHT22;17169;50.966;11.038;2023-07-29T06:39:22;21.80;99.90
30381;DHT22;17169;50.966;11.038;2023-07-29T06:42:25;21.80;99.90
30381;DHT22;17169;50.966;11.038;2023-07-29T06:45:29;21.80;99.90
30381;DHT22;17169;50.966;11.038;2023-07-29T06:48:31;21.90;99.90
30381;DHT22;17169;50.966;11.038;2023-07-29T06:51:34;21.90;99.90
30381;DHT22;17169;50.966;11.038;2023-07-29T06:54:36;21.90;99.90
30381;DHT22;17169;50.966;11.038;2023-07-29T06:57:39;22.00;99.90
30381;DHT22;17169;50.966;11.038;2023-07-29T07:00:43;22.00;99.90
30381;DHT22;17169;50.966;11.038;2023-07-29T07:03:45;21.90;99.90
30381;DHT22;17169;50.966;11.038;2023-07-29T07:06:48;21.90;99.90
30381;DHT22;17169;50.966;11.038;2023-07-29T07:09:50;22.00;99.90
30381;DHT22;17169;50.966;11.038;2023-07-29T07:12:52;22.10;99.90
30381;DHT22;17169;50.966;11.038;2023-07-29T07:15:57;22.20;99.90
30381;DHT22;17169;50.966;11.038;2023-07-29T07:18:59;22.40;99.90
30381;DHT22;17169;50.966;11.038;2023-07-29T07:22:02;22.50;99.90
30381;DHT22;17169;50.966;11.038;2023-07-29T07:25:05;22.80;99.90
30381;DHT22;17169;50.966;11.038;2023-07-29T07:28:08;23.10;99.90
30381;DHT22;17169;50.966;11.038;2023-07-29T07:31:12;23.20;99.90
30381;DHT22;17169;50.966;11.038;2023-07-29T07:34:14;23.30;99.90
30381;DHT22;17169;50.966;11.038;2023-07-29T07:37:17;23.30;99.90
30381;DHT22;17169;50.966;11.038;2023-07-29T07:40:19;23.50;99.90
30381;DHT22;17169;50.966;11.038;2023-07-29T07:43:22;23.70;99.90
30381;DHT22;17169;50.966;11.038;2023-07-29T07:46:26;23.80;99.90
30381;DHT22;17169;50.966;11.038;2023-07-29T07:49:29;23.90;99.90
30381;DHT22;17169;50.966;11.038;2023-07-29T07:52:31;23.90;99.90
30381;DHT22;17169;50.966;11.038;2023-07-29T07:55:33;23.90;99.90
30381;DHT22;17169;50.966;11.038;2023-07-29T07:58:36;23.90;99.90
30381;DHT22;17169;50.966;11.038;2023-07-29T08:01:40;23.90;99.90
30381;DHT22;17169;50.966;11.038;2023-07-29T08:04:42;24.00;99.90
30381;DHT22;17169;50.966;11.038;2023-07-29T08:07:45;24.00;99.90
30381;DHT22;17169;50.966;11.038;2023-07-29T08:10:47;24.00;99.90
30381;DHT22;17169;50.966;11.038;2023-07-29T08:13:50;24.00;99.90
30381;DHT22;17169;50.966;11.038;2023-07-29T08:16:53;24.00;99.90
30381;DHT22;17169;50.966;11.038;2023-07-29T08:19:56;24.00;99.90
30381;DHT22;17169;50.966;11.038;2023-07-29T08:22:58;24.20;99.90
30381;DHT22;17169;50.966;11.038;2023-07-29T08:26:02;24.20;99.90
30381;DHT22;17169;50.966;11.038;2023-07-29T08:29:06;24.10;99.90
30381;DHT22;17169;50.966;11.038;2023-07-29T08:32:09;24.10;99.90
30381;DHT22;17169;50.966;11.038;2023-07-29T08:35:12;24.00;99.90
30381;DHT22;17169;50.966;11.038;2023-07-29T08:38:14;24.00;99.90
30381;DHT22;17169;50.966;11.038;2023-07-29T08:41:21;24.00;99.90
30381;DHT22;17169;50.966;11.038;2023-07-29T08:44:30;24.00;99.90
30381;DHT22;17169;50.966;11.038;2023-07-29T08:47:34;23.90;99.90
30381;DHT22;17169;50.966;11.038;2023-07-29T08:50:37;23.90;99.90
30381;DHT22;17169;50.966;11.038;2023-07-29T08:53:40;23.70;99.90
30381;DHT22;17169;50.966;11.038;2023-07-29T08:56:42;23.60;99.90
30381;DHT22;17169;50.966;11.038;2023-07-29T08:59:45;23.50;99.90
30381;DHT22;17169;50.966;11.038;2023-07-29T09:02:49;23.40;99.90
30381;DHT22;17169;50.966;11.038;2023-07-29T09:05:53;23.40;99.90
30381;DHT22;17169;50.966;11.038;2023-07-29T09:08:58;23.30;99.90
30381;DHT22;17169;50.966;11.038;2023-07-29T09:12:01;23.30;99.90
30381;DHT22;17169;50.966;11.038;2023-07-29T09:15:04;23.30;99.90
30381;DHT22;17169;50.966;11.038;2023-07-29T09:18:13;23.30;99.90
30381;DHT22;17169;50.966;11.038;2023-07-29T09:21:17;23.30;99.90
30381;DHT22;17169;50.966;11.038;2023-07-29T09:24:21;23.30;99.90
30381;DHT22;17169;50.966;11.038;2023-07-29T09:27:24;23.40;99.90
30381;DHT22;17169;50.966;11.038;2023-07-29T09:30:28;23.50;99.90
30381;DHT22;17169;50.966;11.038;2023-07-29T09:33:34;23.60;99.90
30381;DHT22;17169;50.966;11.038;2023-07-29T09:36:37;23.60;99.90
30381;DHT22;17169;50.966;11.038;2023-07-29T09:39:44;23.70;99.90
30381;DHT22;17169;50.966;11.038;2023-07-29T09:42:50;23.80;99.90
30381;DHT22;17169;50.966;11.038;2023-07-29T09:45:53;23.90;99.90
30381;DHT22;17169;50.966;11.038;2023-07-29T09:48:57;23.80;99.90
30381;DHT22;17169;50.966;11.038;2023-07-29T09:52:00;23.80;99.90
30381;DHT22;17169;50.966;11.038;2023-07-29T09:55:03;23.80;99.90
30381;DHT22;17169;50.966;11.038;2023-07-29T09:58:07;23.80;99.90
30381;DHT22;17169;50.966;11.038;2023-07-29T10:01:09;23.70;99.90
30381;DHT22;17169;50.966;11.038;2023-07-29T10:04:13;23.70;99.90
30381;DHT22;17169;50.966;11.038;2023-07-29T10:07:17;23.70;99.90
30381;DHT22;17169;50.966;11.038;2023-07-29T10:10:21;23.60;99.90
30381;DHT22;17169;50.966;11.038;2023-07-29T10:13:25;23.50;99.90
30381;DHT22;17169;50.966;11.038;2023-07-29T10:16:29;23.40;99.90
30381;DHT22;17169;50.966;11.038;2023-07-29T10:19:34;23.40;99.90
30381;DHT22;17169;50.966;11.038;2023-07-29T10:22:40;23.40;99.90
30381;DHT22;17169;50.966;11.038;2023-07-29T10:25:47;23.50;99.90
30381;DHT22;17169;50.966;11.038;2023-07-29T10:28:52;23.60;99.90
30381;DHT22;17169;50.966;11.038;2023-07-29T10:31:57;23.70;99.90
30381;DHT22;17169;50.966;11.038;2023-07-29T10:35:05;23.80;99.90
30381;DHT22;17169;50.966;11.038;2023-07-29T10:38:08;23.90;99.90
30381;DHT22;17169;50.966;11.038;2023-07-29T10:41:11;24.10;99.90
30381;DHT22;17169;50.966;11.038;2023-07-29T10:47:51;24.20;99.90
30381;DHT22;17169;50.966;11.038;2023-07-29T10:51:24;24.30;99.90
30381;DHT22;17169;50.966;11.038;2023-07-29T10:54:27;24.60;99.90
30381;DHT22;17169;50.966;11.038;2023-07-29T10:57:33;24.70;99.90
30381;DHT22;17169;50.966;11.038;2023-07-29T11:00:36;24.80;99.90
30381;DHT22;17169;50.966;11.038;2023-07-29T11:03:38;24.90;99.90
30381;DHT22;17169;50.966;11.038;2023-07-29T11:10:25;25.50;99.90
30381;DHT22;17169;50.966;11.038;2023-07-29T11:13:28;25.60;99.90
30381;DHT22;17169;50.966;11.038;2023-07-29T11:16:30;25.80;99.90
30381;DHT22;17169;50.966;11.038;2023-07-29T11:19:34;25.90;99.90
30381;DHT22;17169;50.966;11.038;2023-07-29T11:22:38;26.20;99.90
30381;DHT22;17169;50.966;11.038;2023-07-29T11:25:42;26.40;99.90
30381;DHT22;17169;50.966;11.038;2023-07-29T11:28:46;26.40;99.90
30381;DHT22;17169;50.966;11.038;2023-07-29T11:31:51;26.50;99.90
30381;DHT22;17169;50.966;11.038;2023-07-29T11:34:53;26.50;99.90
30381;DHT22;17169;50.966;11.038;2023-07-29T11:37:55;26.50;99.40
30381;DHT22;17169;50.966;11.038;2023-07-29T11:41:01;26.80;98.70
30381;DHT22;17169;50.966;11.038;2023-07-29T11:44:09;27.00;98.80
30381;DHT22;17169;50.966;11.038;2023-07-29T11:47:12;27.40;97.80
30381;DHT22;17169;50.966;11.038;2023-07-29T11:50:15;27.70;97.70
30381;DHT22;17169;50.966;11.038;2023-07-29T11:53:18;27.80;96.90
30381;DHT22;17169;50.966;11.038;2023-07-29T11:56:22;27.90;97.40
30381;DHT22;17169;50.966;11.038;2023-07-29T11:59:27;28.00;96.90
30381;DHT22;17169;50.966;11.038;2023-07-29T12:02:30;28.00;96.10
30381;DHT22;17169;50.966;11.038;2023-07-29T12:05:33;28.10;96.20
30381;DHT22;17169;50.966;11.038;2023-07-29T12:08:36;28.10;96.90
30381;DHT22;17169;50.966;11.038;2023-07-29T12:11:40;28.40;96.20
30381;DHT22;17169;50.966;11.038;2023-07-29T12:14:45;28.30;94.90
30381;DHT22;17169;50.966;11.038;2023-07-29T12:17:48;28.20;95.50
30381;DHT22;17169;50.966;11.038;2023-07-29T12:20:50;28.10;95.20
30381;DHT22;17169;50.966;11.038;2023-07-29T12:23:53;28.00;95.70
30381;DHT22;17169;50.966;11.038;2023-07-29T12:26:57;27.90;94.90
30381;DHT22;17169;50.966;11.038;2023-07-29T12:30:01;27.80;94.60
30381;DHT22;17169;50.966;11.038;2023-07-29T12:33:05;27.70;94.50
30381;DHT22;17169;50.966;11.038;2023-07-29T12:36:07;27.90;94.50
30381;DHT22;17169;50.966;11.038;2023-07-29T12:39:20;27.90;94.30
30381;DHT22;17169;50.966;11.038;2023-07-29T12:42:24;28.00;94.50
30381;DHT22;17169;50.966;11.038;2023-07-29T12:45:26;28.20;94.20
30381;DHT22;17169;50.966;11.038;2023-07-29T12:48:29;28.00;93.80
30381;DHT22;17169;50.966;11.038;2023-07-29T12:51:32;27.70;94.40
30381;DHT22;17169;50.966;11.038;2023-07-29T12:54:34;27.70;94.40
30381;DHT22;17169;50.966;11.038;2023-07-29T12:57:39;27.80;94.70
30381;DHT22;17169;50.966;11.038;2023-07-29T13:00:41;28.00;93.90
30381;DHT22;17169;50.966;11.038;2023-07-29T13:03:44;27.80;93.60
30381;DHT22;17169;50.966;11.038;2023-07-29T13:06:46;27.70;94.20
30381;DHT22;17169;50.966;11.038;2023-07-29T13:09:49;27.80;94.70
30381;DHT22;17169;50.966;11.038;2023-07-29T13:12:53;27.70;94.30
30381;DHT22;17169;50.966;11.038;2023-07-29T13:15:55;27.60;93.80
30381;DHT22;17169;50.966;11.038;2023-07-29T13:18:58;27.50;93.70
30381;DHT22;17169;50.966;11.038;2023-07-29T13:22:00;27.30;93.40
30381;DHT22;17169;50.966;11.038;2023-07-29T13:25:03;27.10;93.70
30381;DHT22;17169;50.966;11.038;2023-07-29T13:28:09;26.80;94.10
30381;DHT22;17169;50.966;11.038;2023-07-29T13:31:12;26.60;95.40
30381;DHT22;17169;50.966;11.038;2023-07-29T13:34:15;26.40;96.00
30381;DHT22;17169;50.966;11.038;2023-07-29T13:37:17;26.10;96.50
30381;DHT22;17169;50.966;11.038;2023-07-29T13:40:20;25.90;96.60
30381;DHT22;17169;50.966;11.038;2023-07-29T13:43:23;25.70;96.70
30381;DHT22;17169;50.966;11.038;2023-07-29T13:46:26;25.40;96.80
30381;DHT22;17169;50.966;11.038;2023-07-29T13:49:29;25.10;97.60
30381;DHT22;17169;50.966;11.038;2023-07-29T13:52:31;24.90;98.50
30381;DHT22;17169;50.966;11.038;2023-07-29T13:55:34;24.70;99.80
30381;DHT22;17169;50.966;11.038;2023-07-29T13:58:37;24.50;99.90
30381;DHT22;17169;50.966;11.038;2023-07-29T14:01:40;24.20;99.90
30381;DHT22;17169;50.966;11.038;2023-07-29T14:04:42;23.90;99.90
30381;DHT22;17169;50.966;11.038;2023-07-29T14:07:45;23.30;99.90
30381;DHT22;17169;50.966;11.038;2023-07-29T14:10:48;22.70;99.90
30381;DHT22;17169;50.966;11.038;2023-07-29T14:13:52;22.10;99.90
30381;DHT22;17169;50.966;11.038;2023-07-29T14:16:55;21.70;99.90
30381;DHT22;17169;50.966;11.038;2023-07-29T14:19:57;21.30;99.90
30381;DHT22;17169;50.966;11.038;2023-07-29T14:23:00;21.10;99.90
30381;DHT22;17169;50.966;11.038;2023-07-29T14:26:02;21.00;99.90
30381;DHT22;17169;50.966;11.038;2023-07-29T14:29:06;21.00;99.90
30381;DHT22;17169;50.966;11.038;2023-07-29T14:32:08;21.10;99.90
30381;DHT22;17169;50.966;11.038;2023-07-29T14:35:11;21.70;99.90
30381;DHT22;17169;50.966;11.038;2023-07-29T14:38:13;22.70;99.90
30381;DHT22;17169;50.966;11.038;2023-07-29T14:41:16;24.80;99.90
30381;DHT22;17169;50.966;11.038;2023-07-29T14:44:20;26.40;99.90
30381;DHT22;17169;50.966;11.038;2023-07-29T14:47:22;26.90;99.90
30381;DHT22;17169;50.966;11.038;2023-07-29T14:50:24;26.50;99.90
30381;DHT22;17169;50.966;11.038;2023-07-29T14:53:27;26.20;99.90
30381;DHT22;17169;50.966;11.038;2023-07-29T14:56:29;26.10;99.90
30381;DHT22;17169;50.966;11.038;2023-07-29T14:59:33;26.70;99.90
30381;DHT22;17169;50.966;11.038;2023-07-29T15:02:36;27.00;99.90
30381;DHT22;17169;50.966;11.038;2023-07-29T15:05:38;28.10;99.90
30381;DHT22;17169;50.966;11.038;2023-07-29T15:08:41;30.70;98.40
30381;DHT22;17169;50.966;11.038;2023-07-29T15:11:44;33.30;97.20
30381;DHT22;17169;50.966;11.038;2023-07-29T15:14:48;34.80;91.90
30381;DHT22;17169;50.966;11.038;2023-07-29T15:17:50;36.40;90.90
30381;DHT22;17169;50.966;11.038;2023-07-29T15:20:52;37.80;86.70
30381;DHT22;17169;50.966;11.038;2023-07-29T15:23:55;38.70;79.10
30381;DHT22;17169;50.966;11.038;2023-07-29T15:26:57;39.60;78.00
30381;DHT22;17169;50.966;11.038;2023-07-29T15:30:01;40.50;73.90
30381;DHT22;17169;50.966;11.038;2023-07-29T15:33:04;41.10;70.80
30381;DHT22;17169;50.966;11.038;2023-07-29T15:36:06;41.40;67.80
30381;DHT22;17169;50.966;11.038;2023-07-29T15:39:09;41.70;66.60
30381;DHT22;17169;50.966;11.038;2023-07-29T15:42:11;42.40;65.10
30381;DHT22;17169;50.966;11.038;2023-07-29T15:45:15;43.30;64.90
30381;DHT22;17169;50.966;11.038;2023-07-29T15:48:18;44.20;62.30
30381;DHT22;17169;50.966;11.038;2023-07-29T15:51:20;44.80;59.70
30381;DHT22;17169;50.966;11.038;2023-07-29T15:54:23;45.00;58.00
30381;DHT22;17169;50.966;11.038;2023-07-29T15:57:25;45.10;57.00
30381;DHT22;17169;50.966;11.038;2023-07-29T16:00:29;45.70;57.60
30381;DHT22;17169;50.966;11.038;2023-07-29T16:03:31;46.70;56.20
30381;DHT22;17169;50.966;11.038;2023-07-29T16:06:34;47.30;53.70
30381;DHT22;17169;50.966;11.038;2023-07-29T16:09:39;47.30;53.40
30381;DHT22;17169;50.966;11.038;2023-07-29T16:12:41;47.40;52.60
30381;DHT22;17169;50.966;11.038;2023-07-29T16:15:45;47.20;51.70
30381;DHT22;17169;50.966;11.038;2023-07-29T16:18:47;47.00;52.40
30381;DHT22;17169;50.966;11.038;2023-07-29T16:21:49;47.00;52.00
30381;DHT22;17169;50.966;11.038;2023-07-29T16:24:52;47.20;50.90
30381;DHT22;17169;50.966;11.038;2023-07-29T16:27:54;47.30;51.00
30381;DHT22;17169;50.966;11.038;2023-07-29T16:30:59;47.80;49.80
30381;DHT22;17169;50.966;11.038;2023-07-29T16:34:01;48.00;49.80
30381;DHT22;17169;50.966;11.038;2023-07-29T16:37:05;47.80;49.30
30381;DHT22;17169;50.966;11.038;2023-07-29T16:40:07;47.80;49.40
30381;DHT22;17169;50.966;11.038;2023-07-29T16:43:10;47.30;48.70
30381;DHT22;17169;50.966;11.038;2023-07-29T16:46:14;46.50;49.90
30381;DHT22;17169;50.966;11.038;2023-07-29T16:49:16;44.10;50.00
30381;DHT22;17169;50.966;11.038;2023-07-29T16:52:19;41.40;52.10
30381;DHT22;17169;50.966;11.038;2023-07-29T16:55:21;39.50;54.20
30381;DHT22;17169;50.966;11.038;2023-07-29T16:58:23;37.50;56.30
30381;DHT22;17169;50.966;11.038;2023-07-29T17:01:27;35.70;58.70
30381;DHT22;17169;50.966;11.038;2023-07-29T17:04:29;34.50;61.20
30381;DHT22;17169;50.966;11.038;2023-07-29T17:07:32;33.40;63.00
30381;DHT22;17169;50.966;11.038;2023-07-29T17:10:34;32.10;64.80
30381;DHT22;17169;50.966;11.038;2023-07-29T17:13:37;31.20;67.10
30381;DHT22;17169;50.966;11.038;2023-07-29T17:16:40;30.10;69.10
30381;DHT22;17169;50.966;11.038;2023-07-29T17:19:43;29.40;71.20
30381;DHT22;17169;50.966;11.038;2023-07-29T17:22:45;28.80;72.40
30381;DHT22;17169;50.966;11.038;2023-07-29T17:25:48;28.40;73.70
30381;DHT22;17169;50.966;11.038;2023-07-29T17:28:50;27.90;75.10
30381;DHT22;17169;50.966;11.038;2023-07-29T17:31:54;27.50;76.80
30381;DHT22;17169;50.966;11.038;2023-07-29T17:34:56;27.10;77.90
30381;DHT22;17169;50.966;11.038;2023-07-29T17:37:58;26.80;79.20
30381;DHT22;17169;50.966;11.038;2023-07-29T17:41:02;26.40;80.60
30381;DHT22;17169;50.966;11.038;2023-07-29T17:44:05;25.90;81.90
30381;DHT22;17169;50.966;11.038;2023-07-29T17:47:08;25.70;83.30
30381;DHT22;17169;50.966;11.038;2023-07-29T17:50:11;25.50;84.60
30381;DHT22;17169;50.966;11.038;2023-07-29T17:53:13;25.20;85.90
30381;DHT22;17169;50.966;11.038;2023-07-29T17:56:15;25.10;86.40
30381;DHT22;17169;50.966;11.038;2023-07-29T17:59:18;24.90;87.30
30381;DHT22;17169;50.966;11.038;2023-07-29T18:02:21;24.70;88.70
30381;DHT22;17169;50.966;11.038;2023-07-29T18:05:24;24.50;89.60
30381;DHT22;17169;50.966;11.038;2023-07-29T18:08:26;24.40;90.20
30381;DHT22;17169;50.966;11.038;2023-07-29T18:11:28;24.20;90.30
30381;DHT22;17169;50.966;11.038;2023-07-29T18:14:31;24.10;90.60
30381;DHT22;17169;50.966;11.038;2023-07-29T18:17:35;23.90;90.80
30381;DHT22;17169;50.966;11.038;2023-07-29T18:20:37;23.80;91.00
30381;DHT22;17169;50.966;11.038;2023-07-29T18:23:40;23.70;91.20
30381;DHT22;17169;50.966;11.038;2023-07-29T18:26:42;23.70;91.70
30381;DHT22;17169;50.966;11.038;2023-07-29T18:29:44;23.50;92.10
30381;DHT22;17169;50.966;11.038;2023-07-29T18:32:48;23.40;92.50
30381;DHT22;17169;50.966;11.038;2023-07-29T18:35:50;23.40;92.90
30381;DHT22;17169;50.966;11.038;2023-07-29T18:38:53;23.20;93.30
30381;DHT22;17169;50.966;11.038;2023-07-29T18:41:55;23.10;93.60
30381;DHT22;17169;50.966;11.038;2023-07-29T18:44:57;23.00;93.90
30381;DHT22;17169;50.966;11.038;2023-07-29T18:48:01;22.90;94.30
30381;DHT22;17169;50.966;11.038;2023-07-29T18:51:04;22.80;94.60
30381;DHT22;17169;50.966;11.038;2023-07-29T18:54:07;22.70;95.10
30381;DHT22;17169;50.966;11.038;2023-07-29T18:57:09;22.60;95.40
30381;DHT22;17169;50.966;11.038;2023-07-29T19:00:12;22.60;95.70
30381;DHT22;17169;50.966;11.038;2023-07-29T19:03:16;22.50;95.90
30381;DHT22;17169;50.966;11.038;2023-07-29T19:06:18;22.40;96.60